sensor_id;sensor_type;location;lat;lon;timestamp;pressure;altitude;pressure_sealevel;temperature;humidity
43804;BME280;29430;52.924;-2.388;2022-12-07T00:01:19;100179.06;;;1.78;93.94
43804;BME280;29430;52.924;-2.388;2022-12-07T00:06:13;100175.81;;;1.74;93.18
43804;BME280;29430;52.924;-2.388;2022-12-07T00:11:11;100169.25;;;1.69;93.65
43804;BME280;29430;52.924;-2.388;2022-12-07T00:16:09;100174.75;;;1.67;94.25
43804;BME280;29430;52.924;-2.388;2022-12-07T00:21:10;100153.66;;;1.64;93.87
43804;BME280;29430;52.924;-2.388;2022-12-07T00:26:10;100144.69;;;1.55;93.46
43804;BME280;29430;52.924;-2.388;2022-12-07T00:31:09;100153.84;;;1.53;93.55
43804;BME280;29430;52.924;-2.388;2022-12-07T00:36:06;100160.34;;;1.50;94.58
43804;BME280;29430;52.924;-2.388;2022-12-07T00:41:26;100153.75;;;1.45;93.85
43804;BME280;29430;52.924;-2.388;2022-12-07T00:46:19;100159.53;;;1.40;93.66
43804;BME280;29430;52.924;-2.388;2022-12-07T00:51:13;100151.94;;;1.35;93.85
43804;BME280;29430;52.924;-2.388;2022-12-07T00:56:13;100141.41;;;1.34;93.86
43804;BME280;29430;52.924;-2.388;2022-12-07T01:01:07;100142.53;;;1.31;93.79
43804;BME280;29430;52.924;-2.388;2022-12-07T01:05:59;100143.13;;;1.25;94.00
43804;BME280;29430;52.924;-2.388;2022-12-07T01:10:59;100143.03;;;1.17;93.53
43804;BME280;29430;52.924;-2.388;2022-12-07T01:15:57;100126.59;;;1.12;94.43
43804;BME280;29430;52.924;-2.388;2022-12-07T01:21:04;100127.44;;;1.12;94.41
43804;BME280;29430;52.924;-2.388;2022-12-07T01:25:57;100135.19;;;1.05;94.37
43804;BME280;29430;52.924;-2.388;2022-12-07T01:30:58;100129.13;;;1.03;94.18
43804;BME280;29430;52.924;-2.388;2022-12-07T01:35:50;100129.56;;;0.99;94.73
43804;BME280;29430;52.924;-2.388;2022-12-07T01:40:41;100135.94;;;0.98;95.08
43804;BME280;29430;52.924;-2.388;2022-12-07T01:45:39;100123.41;;;0.98;95.59
43804;BME280;29430;52.924;-2.388;2022-12-07T01:50:31;100120.50;;;0.92;95.67
43804;BME280;29430;52.924;-2.388;2022-12-07T01:55:24;100112.47;;;0.92;96.01
43804;BME280;29430;52.924;-2.388;2022-12-07T02:00:17;100117.09;;;0.89;96.89
43804;BME280;29430;52.924;-2.388;2022-12-07T02:05:10;100113.75;;;0.87;96.95
43804;BME280;29430;52.924;-2.388;2022-12-07T02:15:07;100113.44;;;0.91;97.33
43804;BME280;29430;52.924;-2.388;2022-12-07T02:30:33;100108.78;;;0.93;97.38
43804;BME280;29430;52.924;-2.388;2022-12-07T02:35:33;100102.47;;;0.94;96.90
43804;BME280;29430;52.924;-2.388;2022-12-07T02:40:38;100103.44;;;0.93;97.11
43804;BME280;29430;52.924;-2.388;2022-12-07T02:45:35;100110.63;;;0.92;96.84
43804;BME280;29430;52.924;-2.388;2022-12-07T02:50:28;100092.22;;;0.89;96.69
43804;BME280;29430;52.924;-2.388;2022-12-07T02:55:25;100083.53;;;0.87;96.90
43804;BME280;29430;52.924;-2.388;2022-12-07T03:00:20;100085.50;;;0.85;96.96
43804;BME280;29430;52.924;-2.388;2022-12-07T03:05:26;100079.16;;;0.86;96.60
43804;BME280;29430;52.924;-2.388;2022-12-07T03:15:26;100060.66;;;0.75;96.79
43804;BME280;29430;52.924;-2.388;2022-12-07T03:20:21;100059.41;;;0.69;97.31
43804;BME280;29430;52.924;-2.388;2022-12-07T03:25:16;100058.59;;;0.68;97.12
43804;BME280;29430;52.924;-2.388;2022-12-07T03:30:21;100057.03;;;0.66;97.50
43804;BME280;29430;52.924;-2.388;2022-12-07T03:35:19;100061.84;;;0.62;97.63
43804;BME280;29430;52.924;-2.388;2022-12-07T03:40:23;100067.16;;;0.62;97.17
43804;BME280;29430;52.924;-2.388;2022-12-07T03:45:17;100066.88;;;0.56;97.18
43804;BME280;29430;52.924;-2.388;2022-12-07T03:55:12;100056.94;;;0.58;97.69
43804;BME280;29430;52.924;-2.388;2022-12-07T04:00:07;100058.06;;;0.55;97.87
43804;BME280;29430;52.924;-2.388;2022-12-07T04:04:59;100037.00;;;0.52;97.67
43804;BME280;29430;52.924;-2.388;2022-12-07T04:09:51;100045.00;;;0.52;97.31
43804;BME280;29430;52.924;-2.388;2022-12-07T04:14:42;100043.59;;;0.48;96.31
43804;BME280;29430;52.924;-2.388;2022-12-07T04:19:34;100037.84;;;0.43;96.52
43804;BME280;29430;52.924;-2.388;2022-12-07T04:24:27;100044.47;;;0.39;96.02
43804;BME280;29430;52.924;-2.388;2022-12-07T04:29:19;100044.06;;;0.33;95.57
43804;BME280;29430;52.924;-2.388;2022-12-07T04:34:12;100039.00;;;0.30;95.77
43804;BME280;29430;52.924;-2.388;2022-12-07T04:39:05;100036.47;;;0.29;96.27
43804;BME280;29430;52.924;-2.388;2022-12-07T04:44:01;100024.53;;;0.23;96.12
43804;BME280;29430;52.924;-2.388;2022-12-07T04:48:54;100030.44;;;0.17;95.39
43804;BME280;29430;52.924;-2.388;2022-12-07T04:53:46;100029.66;;;0.07;95.51
43804;BME280;29430;52.924;-2.388;2022-12-07T04:58:38;100028.53;;;-0.01;95.39
43804;BME280;29430;52.924;-2.388;2022-12-07T05:03:30;100011.28;;;-0.06;95.04
43804;BME280;29430;52.924;-2.388;2022-12-07T05:08:21;100019.72;;;-0.11;95.78
43804;BME280;29430;52.924;-2.388;2022-12-07T05:13:13;100026.97;;;-0.13;96.12
43804;BME280;29430;52.924;-2.388;2022-12-07T05:18:05;100038.94;;;-0.17;95.94
43804;BME280;29430;52.924;-2.388;2022-12-07T05:22:57;100031.63;;;-0.15;96.74
43804;BME280;29430;52.924;-2.388;2022-12-07T05:27:49;100027.84;;;-0.12;96.84
43804;BME280;29430;52.924;-2.388;2022-12-07T05:32:41;100029.66;;;-0.13;96.72
43804;BME280;29430;52.924;-2.388;2022-12-07T05:37:33;100035.69;;;-0.11;96.46
43804;BME280;29430;52.924;-2.388;2022-12-07T05:42:24;100023.50;;;-0.13;96.95
43804;BME280;29430;52.924;-2.388;2022-12-07T05:47:16;100020.41;;;-0.19;96.81
43804;BME280;29430;52.924;-2.388;2022-12-07T05:52:08;100016.06;;;-0.20;96.97
43804;BME280;29430;52.924;-2.388;2022-12-07T05:57:00;100020.84;;;-0.23;96.70
43804;BME280;29430;52.924;-2.388;2022-12-07T06:02:09;100021.13;;;-0.26;96.52
43804;BME280;29430;52.924;-2.388;2022-12-07T06:07:03;100023.47;;;-0.33;96.76
43804;BME280;29430;52.924;-2.388;2022-12-07T06:11:55;100022.66;;;-0.33;96.50
43804;BME280;29430;52.924;-2.388;2022-12-07T06:17:06;100016.91;;;-0.39;96.69
43804;BME280;29430;52.924;-2.388;2022-12-07T06:21:58;100018.84;;;-0.41;96.48
43804;BME280;29430;52.924;-2.388;2022-12-07T06:26:50;100025.72;;;-0.38;96.74
43804;BME280;29430;52.924;-2.388;2022-12-07T06:31:42;100021.50;;;-0.41;96.60
43804;BME280;29430;52.924;-2.388;2022-12-07T06:36:34;100004.41;;;-0.48;95.76
43804;BME280;29430;52.924;-2.388;2022-12-07T06:41:26;100010.03;;;-0.51;95.90
43804;BME280;29430;52.924;-2.388;2022-12-07T06:46:18;100017.28;;;-0.53;96.16
43804;BME280;29430;52.924;-2.388;2022-12-07T06:51:10;100014.06;;;-0.47;96.56
43804;BME280;29430;52.924;-2.388;2022-12-07T06:56:03;100018.56;;;-0.47;96.62
43804;BME280;29430;52.924;-2.388;2022-12-07T07:00:55;100011.81;;;-0.51;96.49
43804;BME280;29430;52.924;-2.388;2022-12-07T07:05:47;100003.97;;;-0.53;96.04
43804;BME280;29430;52.924;-2.388;2022-12-07T07:10:39;100014.63;;;-0.53;96.33
43804;BME280;29430;52.924;-2.388;2022-12-07T07:15:32;100016.31;;;-0.52;96.49
43804;BME280;29430;52.924;-2.388;2022-12-07T07:20:24;100011.41;;;-0.57;96.59
43804;BME280;29430;52.924;-2.388;2022-12-07T07:25:16;100015.91;;;-0.57;96.65
43804;BME280;29430;52.924;-2.388;2022-12-07T07:30:08;100007.91;;;-0.57;97.17
43804;BME280;29430;52.924;-2.388;2022-12-07T07:35:00;100001.84;;;-0.59;97.05
43804;BME280;29430;52.924;-2.388;2022-12-07T07:39:52;100002.59;;;-0.57;97.17
43804;BME280;29430;52.924;-2.388;2022-12-07T07:44:44;99997.66;;;-0.62;97.14
43804;BME280;29430;52.924;-2.388;2022-12-07T07:49:35;99997.53;;;-0.60;96.88
43804;BME280;29430;52.924;-2.388;2022-12-07T07:54:27;100002.72;;;-0.59;96.83
43804;BME280;29430;52.924;-2.388;2022-12-07T07:59:20;99993.03;;;-0.60;96.62
43804;BME280;29430;52.924;-2.388;2022-12-07T08:04:12;99990.66;;;-0.63;96.46
43804;BME280;29430;52.924;-2.388;2022-12-07T08:09:03;100002.13;;;-0.62;96.17
43804;BME280;29430;52.924;-2.388;2022-12-07T08:13:57;100008.47;;;-0.63;96.54
43804;BME280;29430;52.924;-2.388;2022-12-07T08:18:48;99998.63;;;-0.63;95.89
43804;BME280;29430;52.924;-2.388;2022-12-07T08:23:41;100001.16;;;-0.61;96.23
43804;BME280;29430;52.924;-2.388;2022-12-07T08:28:33;99991.91;;;-0.67;96.32
43804;BME280;29430;52.924;-2.388;2022-12-07T08:33:25;100004.81;;;-0.62;96.07
43804;BME280;29430;52.924;-2.388;2022-12-07T08:38:17;99996.53;;;-0.59;96.46
43804;BME280;29430;52.924;-2.388;2022-12-07T08:43:09;99998.78;;;-0.55;97.19
43804;BME280;29430;52.924;-2.388;2022-12-07T08:48:06;100004.97;;;-0.44;97.62
43804;BME280;29430;52.924;-2.388;2022-12-07T08:53:00;100006.94;;;-0.37;97.78
43804;BME280;29430;52.924;-2.388;2022-12-07T08:57:52;99996.84;;;-0.23;97.78
43804;BME280;29430;52.924;-2.388;2022-12-07T09:02:45;99984.47;;;-0.14;97.84
43804;BME280;29430;52.924;-2.388;2022-12-07T09:07:38;99989.81;;;-0.05;97.27
43804;BME280;29430;52.924;-2.388;2022-12-07T09:12:30;99984.31;;;0.07;97.66
43804;BME280;29430;52.924;-2.388;2022-12-07T09:17:22;99987.47;;;0.30;97.54
43804;BME280;29430;52.924;-2.388;2022-12-07T09:22:13;99978.31;;;0.42;97.13
43804;BME280;29430;52.924;-2.388;2022-12-07T09:27:05;99980.88;;;0.71;97.96
43804;BME280;29430;52.924;-2.388;2022-12-07T09:31:57;99986.22;;;1.17;98.46
43804;BME280;29430;52.924;-2.388;2022-12-07T09:36:49;99986.34;;;1.79;98.17
43804;BME280;29430;52.924;-2.388;2022-12-07T09:41:43;99985.53;;;2.58;96.72
43804;BME280;29430;52.924;-2.388;2022-12-07T09:46:37;99978.25;;;3.19;91.74
43804;BME280;29430;52.924;-2.388;2022-12-07T09:51:30;99971.94;;;3.53;87.26
43804;BME280;29430;52.924;-2.388;2022-12-07T09:56:23;99970.59;;;3.40;84.83
43804;BME280;29430;52.924;-2.388;2022-12-07T10:01:18;99973.28;;;3.40;84.95
43804;BME280;29430;52.924;-2.388;2022-12-07T10:06:12;99961.19;;;3.36;85.43
43804;BME280;29430;52.924;-2.388;2022-12-07T10:11:04;99966.44;;;3.71;85.05
43804;BME280;29430;52.924;-2.388;2022-12-07T10:16:02;99969.44;;;4.09;83.34
43804;BME280;29430;52.924;-2.388;2022-12-07T10:25:54;99958.97;;;4.95;79.88
43804;BME280;29430;52.924;-2.388;2022-12-07T10:35:44;99957.13;;;5.50;76.69
43804;BME280;29430;52.924;-2.388;2022-12-07T10:40:36;99952.59;;;5.73;76.77
43804;BME280;29430;52.924;-2.388;2022-12-07T10:45:32;99951.25;;;5.92;74.17
43804;BME280;29430;52.924;-2.388;2022-12-07T11:11:43;99939.75;;;6.81;69.61
43804;BME280;29430;52.924;-2.388;2022-12-07T11:21:45;99910.31;;;7.02;68.41
43804;BME280;29430;52.924;-2.388;2022-12-07T11:37:02;99893.03;;;6.96;66.67
43804;BME280;29430;52.924;-2.388;2022-12-07T11:42:30;99887.19;;;6.92;66.83
43804;BME280;29430;52.924;-2.388;2022-12-07T11:57:56;99851.44;;;6.69;66.67
43804;BME280;29430;52.924;-2.388;2022-12-07T12:03:09;99846.72;;;6.71;66.88
43804;BME280;29430;52.924;-2.388;2022-12-07T12:19:02;99834.28;;;6.55;67.58
43804;BME280;29430;52.924;-2.388;2022-12-07T12:24:01;99822.03;;;6.52;66.69
43804;BME280;29430;52.924;-2.388;2022-12-07T12:28:58;99804.50;;;6.41;66.57
43804;BME280;29430;52.924;-2.388;2022-12-07T12:34:02;99808.94;;;6.34;67.49
43804;BME280;29430;52.924;-2.388;2022-12-07T12:43:58;99780.38;;;6.03;65.98
43804;BME280;29430;52.924;-2.388;2022-12-07T12:48:50;99783.00;;;5.97;66.10
43804;BME280;29430;52.924;-2.388;2022-12-07T12:53:41;99784.53;;;5.91;67.66
43804;BME280;29430;52.924;-2.388;2022-12-07T12:58:36;99786.66;;;5.81;69.14
43804;BME280;29430;52.924;-2.388;2022-12-07T13:03:30;99777.84;;;5.72;68.94
43804;BME280;29430;52.924;-2.388;2022-12-07T13:08:24;99769.59;;;5.73;68.82
43804;BME280;29430;52.924;-2.388;2022-12-07T13:13:29;99764.47;;;5.64;69.28
43804;BME280;29430;52.924;-2.388;2022-12-07T13:23:23;99745.50;;;5.27;68.69
43804;BME280;29430;52.924;-2.388;2022-12-07T13:28:17;99753.84;;;5.17;69.28
43804;BME280;29430;52.924;-2.388;2022-12-07T13:33:17;99745.00;;;5.09;70.09
43804;BME280;29430;52.924;-2.388;2022-12-07T13:38:31;99755.34;;;4.97;69.90
43804;BME280;29430;52.924;-2.388;2022-12-07T13:43:23;99750.94;;;4.81;70.52
43804;BME280;29430;52.924;-2.388;2022-12-07T13:48:31;99741.44;;;4.70;71.28
43804;BME280;29430;52.924;-2.388;2022-12-07T13:53:25;99734.91;;;4.64;72.11
43804;BME280;29430;52.924;-2.388;2022-12-07T13:58:22;99732.59;;;4.61;72.74
43804;BME280;29430;52.924;-2.388;2022-12-07T14:08:22;99717.38;;;4.54;73.59
43804;BME280;29430;52.924;-2.388;2022-12-07T14:18:38;99707.88;;;4.43;74.29
43804;BME280;29430;52.924;-2.388;2022-12-07T14:23:31;99708.72;;;4.43;74.90
43804;BME280;29430;52.924;-2.388;2022-12-07T14:28:28;99702.69;;;4.41;75.06
43804;BME280;29430;52.924;-2.388;2022-12-07T14:33:21;99704.06;;;4.37;74.92
43804;BME280;29430;52.924;-2.388;2022-12-07T14:38:13;99692.81;;;4.34;75.01
43804;BME280;29430;52.924;-2.388;2022-12-07T14:43:10;99689.72;;;4.22;74.47
43804;BME280;29430;52.924;-2.388;2022-12-07T14:48:04;99677.50;;;4.19;75.38
43804;BME280;29430;52.924;-2.388;2022-12-07T14:53:17;99683.22;;;4.16;75.07
43804;BME280;29430;52.924;-2.388;2022-12-07T14:58:17;99670.50;;;4.10;75.01
43804;BME280;29430;52.924;-2.388;2022-12-07T15:03:10;99659.28;;;4.06;74.50
43804;BME280;29430;52.924;-2.388;2022-12-07T15:08:02;99663.16;;;4.04;75.05
43804;BME280;29430;52.924;-2.388;2022-12-07T15:12:54;99660.00;;;4.00;74.88
43804;BME280;29430;52.924;-2.388;2022-12-07T15:17:46;99651.44;;;3.97;75.23
43804;BME280;29430;52.924;-2.388;2022-12-07T15:22:38;99647.63;;;3.91;75.32
43804;BME280;29430;52.924;-2.388;2022-12-07T15:27:30;99654.84;;;3.90;75.22
43804;BME280;29430;52.924;-2.388;2022-12-07T15:32:21;99635.75;;;3.85;75.59
43804;BME280;29430;52.924;-2.388;2022-12-07T15:37:14;99636.47;;;3.79;75.55
43804;BME280;29430;52.924;-2.388;2022-12-07T15:42:06;99617.91;;;3.69;75.71
43804;BME280;29430;52.924;-2.388;2022-12-07T15:46:58;99607.72;;;3.65;76.05
43804;BME280;29430;52.924;-2.388;2022-12-07T15:51:50;99613.41;;;3.62;75.49
43804;BME280;29430;52.924;-2.388;2022-12-07T15:56:42;99594.66;;;3.53;76.08
43804;BME280;29430;52.924;-2.388;2022-12-07T16:01:33;99608.28;;;3.44;75.82
43804;BME280;29430;52.924;-2.388;2022-12-07T16:06:26;99609.28;;;3.43;75.63
43804;BME280;29430;52.924;-2.388;2022-12-07T16:11:18;99603.97;;;3.34;75.66
43804;BME280;29430;52.924;-2.388;2022-12-07T16:16:13;99607.22;;;3.21;75.98
43804;BME280;29430;52.924;-2.388;2022-12-07T16:21:06;99608.44;;;3.11;76.36
43804;BME280;29430;52.924;-2.388;2022-12-07T16:26:12;99605.09;;;3.00;76.88
43804;BME280;29430;52.924;-2.388;2022-12-07T16:31:07;99608.47;;;2.94;77.62
43804;BME280;29430;52.924;-2.388;2022-12-07T16:36:03;99593.91;;;2.89;77.54
43804;BME280;29430;52.924;-2.388;2022-12-07T16:40:55;99592.59;;;2.84;77.88
43804;BME280;29430;52.924;-2.388;2022-12-07T16:45:48;99595.44;;;2.75;78.10
43804;BME280;29430;52.924;-2.388;2022-12-07T16:50:40;99582.06;;;2.66;78.23
43804;BME280;29430;52.924;-2.388;2022-12-07T16:55:44;99576.88;;;2.65;78.52
43804;BME280;29430;52.924;-2.388;2022-12-07T17:00:36;99566.19;;;2.57;78.78
43804;BME280;29430;52.924;-2.388;2022-12-07T17:05:28;99561.34;;;2.52;79.10
43804;BME280;29430;52.924;-2.388;2022-12-07T17:10:20;99570.06;;;2.46;79.12
43804;BME280;29430;52.924;-2.388;2022-12-07T17:15:13;99551.81;;;2.33;79.28
43804;BME280;29430;52.924;-2.388;2022-12-07T17:20:09;99564.69;;;2.29;79.55
43804;BME280;29430;52.924;-2.388;2022-12-07T17:25:01;99553.50;;;2.18;80.21
43804;BME280;29430;52.924;-2.388;2022-12-07T17:29:54;99549.31;;;2.07;79.98
43804;BME280;29430;52.924;-2.388;2022-12-07T17:34:45;99550.66;;;2.03;80.53
43804;BME280;29430;52.924;-2.388;2022-12-07T17:39:37;99539.94;;;1.86;81.15
43804;BME280;29430;52.924;-2.388;2022-12-07T17:44:30;99538.91;;;1.79;81.25
43804;BME280;29430;52.924;-2.388;2022-12-07T17:49:22;99519.88;;;1.74;81.08
43804;BME280;29430;52.924;-2.388;2022-12-07T17:54:14;99522.38;;;1.67;81.66
43804;BME280;29430;52.924;-2.388;2022-12-07T17:59:06;99527.03;;;1.57;81.51
43804;BME280;29430;52.924;-2.388;2022-12-07T18:03:58;99540.72;;;1.46;81.50
43804;BME280;29430;52.924;-2.388;2022-12-07T18:08:50;99533.84;;;1.35;81.93
43804;BME280;29430;52.924;-2.388;2022-12-07T18:13:42;99519.09;;;1.22;82.43
43804;BME280;29430;52.924;-2.388;2022-12-07T18:18:35;99519.94;;;1.23;82.88
43804;BME280;29430;52.924;-2.388;2022-12-07T18:23:27;99513.56;;;1.16;83.22
43804;BME280;29430;52.924;-2.388;2022-12-07T18:28:19;99497.03;;;1.12;83.29
43804;BME280;29430;52.924;-2.388;2022-12-07T18:33:11;99491.50;;;1.05;83.89
43804;BME280;29430;52.924;-2.388;2022-12-07T18:38:03;99478.97;;;0.98;83.88
43804;BME280;29430;52.924;-2.388;2022-12-07T18:42:55;99482.13;;;0.93;84.43
43804;BME280;29430;52.924;-2.388;2022-12-07T18:47:46;99479.94;;;0.88;84.59
43804;BME280;29430;52.924;-2.388;2022-12-07T18:52:38;99478.59;;;0.93;84.88
43804;BME280;29430;52.924;-2.388;2022-12-07T18:57:33;99466.03;;;0.85;85.11
43804;BME280;29430;52.924;-2.388;2022-12-07T19:02:25;99460.38;;;0.80;85.47
43804;BME280;29430;52.924;-2.388;2022-12-07T19:07:17;99459.00;;;0.76;85.04
43804;BME280;29430;52.924;-2.388;2022-12-07T19:12:12;99456.19;;;0.77;85.48
43804;BME280;29430;52.924;-2.388;2022-12-07T19:17:07;99452.84;;;0.75;85.88
43804;BME280;29430;52.924;-2.388;2022-12-07T19:22:00;99447.31;;;0.68;85.69
43804;BME280;29430;52.924;-2.388;2022-12-07T19:26:53;99426.28;;;0.65;85.88
43804;BME280;29430;52.924;-2.388;2022-12-07T19:31:46;99431.09;;;0.62;85.47
43804;BME280;29430;52.924;-2.388;2022-12-07T19:36:38;99434.94;;;0.59;85.90
43804;BME280;29430;52.924;-2.388;2022-12-07T19:41:30;99431.41;;;0.59;86.32
43804;BME280;29430;52.924;-2.388;2022-12-07T19:46:26;99423.88;;;0.54;86.26
43804;BME280;29430;52.924;-2.388;2022-12-07T19:51:20;99423.56;;;0.57;86.30
43804;BME280;29430;52.924;-2.388;2022-12-07T19:56:14;99419.41;;;0.55;86.76
43804;BME280;29430;52.924;-2.388;2022-12-07T20:01:06;99419.88;;;0.50;86.98
43804;BME280;29430;52.924;-2.388;2022-12-07T20:05:58;99422.03;;;0.46;87.47
43804;BME280;29430;52.924;-2.388;2022-12-07T20:10:50;99415.22;;;0.52;87.76
43804;BME280;29430;52.924;-2.388;2022-12-07T20:15:42;99405.19;;;0.46;87.33
43804;BME280;29430;52.924;-2.388;2022-12-07T20:20:34;99395.34;;;0.46;87.60
43804;BME280;29430;52.924;-2.388;2022-12-07T20:25:26;99397.34;;;0.44;87.48
43804;BME280;29430;52.924;-2.388;2022-12-07T20:30:18;99403.16;;;0.40;88.37
43804;BME280;29430;52.924;-2.388;2022-12-07T20:35:10;99396.13;;;0.39;87.74
43804;BME280;29430;52.924;-2.388;2022-12-07T20:40:01;99377.44;;;0.30;87.80
43804;BME280;29430;52.924;-2.388;2022-12-07T20:44:53;99378.59;;;0.28;87.89
43804;BME280;29430;52.924;-2.388;2022-12-07T20:49:53;99372.91;;;0.23;87.62
43804;BME280;29430;52.924;-2.388;2022-12-07T20:54:44;99372.72;;;0.16;87.92
43804;BME280;29430;52.924;-2.388;2022-12-07T20:59:36;99353.00;;;0.09;88.25
43804;BME280;29430;52.924;-2.388;2022-12-07T21:04:32;99363.00;;;0.07;88.15
43804;BME280;29430;52.924;-2.388;2022-12-07T21:09:23;99354.47;;;0.03;87.82
43804;BME280;29430;52.924;-2.388;2022-12-07T21:14:17;99353.28;;;-0.03;87.84
43804;BME280;29430;52.924;-2.388;2022-12-07T21:19:09;99353.25;;;-0.11;87.97
43804;BME280;29430;52.924;-2.388;2022-12-07T21:24:02;99345.03;;;-0.17;88.51
43804;BME280;29430;52.924;-2.388;2022-12-07T21:28:55;99337.50;;;-0.22;88.74
43804;BME280;29430;52.924;-2.388;2022-12-07T21:33:48;99343.00;;;-0.24;89.68
43804;BME280;29430;52.924;-2.388;2022-12-07T21:38:41;99334.38;;;-0.17;89.33
43804;BME280;29430;52.924;-2.388;2022-12-07T21:43:33;99333.69;;;-0.20;89.44
43804;BME280;29430;52.924;-2.388;2022-12-07T21:48:24;99314.53;;;-0.23;89.00
43804;BME280;29430;52.924;-2.388;2022-12-07T21:53:16;99325.81;;;-0.29;88.63
43804;BME280;29430;52.924;-2.388;2022-12-07T21:58:08;99320.44;;;-0.38;88.79
43804;BME280;29430;52.924;-2.388;2022-12-07T22:03:00;99315.72;;;-0.44;88.76
43804;BME280;29430;52.924;-2.388;2022-12-07T22:07:52;99302.69;;;-0.55;89.01
43804;BME280;29430;52.924;-2.388;2022-12-07T22:12:44;99301.00;;;-0.56;89.36
43804;BME280;29430;52.924;-2.388;2022-12-07T22:17:36;99299.66;;;-0.60;89.19
43804;BME280;29430;52.924;-2.388;2022-12-07T22:22:27;99292.28;;;-0.66;89.39
43804;BME280;29430;52.924;-2.388;2022-12-07T22:27:19;99280.13;;;-0.69;89.49
43804;BME280;29430;52.924;-2.388;2022-12-07T22:32:11;99277.59;;;-0.70;90.01
43804;BME280;29430;52.924;-2.388;2022-12-07T22:37:23;99265.59;;;-0.75;89.81
43804;BME280;29430;52.924;-2.388;2022-12-07T22:42:14;99273.88;;;-0.78;89.73
43804;BME280;29430;52.924;-2.388;2022-12-07T22:47:06;99263.53;;;-0.81;89.51
43804;BME280;29430;52.924;-2.388;2022-12-07T22:51:58;99269.56;;;-0.79;89.68
43804;BME280;29430;52.924;-2.388;2022-12-07T22:56:50;99264.91;;;-0.77;90.03
43804;BME280;29430;52.924;-2.388;2022-12-07T23:01:42;99259.38;;;-0.83;89.31
43804;BME280;29430;52.924;-2.388;2022-12-07T23:06:34;99257.72;;;-0.84;89.70
43804;BME280;29430;52.924;-2.388;2022-12-07T23:11:29;99243.88;;;-0.88;89.30
43804;BME280;29430;52.924;-2.388;2022-12-07T23:16:40;99227.38;;;-0.92;89.30
43804;BME280;29430;52.924;-2.388;2022-12-07T23:21:35;99236.53;;;-0.94;90.23
43804;BME280;29430;52.924;-2.388;2022-12-07T23:26:27;99231.03;;;-0.93;90.10
43804;BME280;29430;52.924;-2.388;2022-12-07T23:31:19;99223.25;;;-0.86;90.24
43804;BME280;29430;52.924;-2.388;2022-12-07T23:36:14;99221.09;;;-0.82;90.22
43804;BME280;29430;52.924;-2.388;2022-12-07T23:41:08;99223.59;;;-0.81;89.84
43804;BME280;29430;52.924;-2.388;2022-12-07T23:46:00;99209.63;;;-0.83;90.21
43804;BME280;29430;52.924;-2.388;2022-12-07T23:50:56;99209.31;;;-0.80;90.57
43804;BME280;29430;52.924;-2.388;2022-12-07T23:55:48;99202.31;;;-0.81;90.19
